Time;durP1;ratioP1;P1;durP2;ratioP2;P2;SDS_P1;SDS_P2;PMS_P1;PMS_P2;Temp;Humidity;BMP_temperature;BMP_pressure;BME280_temperature;BME280_humidity;BME280_pressure;Samples;Min_cycle;Max_cycle;Signal;HPM_P1;HPM_P2
2022/03/19 00:00:53;;;;;;;;;;;;;;;2.03;79.64;103350.72;5098485;28;1557;-89
2022/03/19 00:03:21;;;;;;;;;;;;;;;2.06;79.15;103354.94;5095890;28;1413;-89
2022/03/19 00:05:47;;;;;;;;;;;;;;;2.01;79.68;103354.56;5078023;28;1426;-89
2022/03/19 00:08:13;;;;;;;;;;;;;;;2.06;80.43;103353.09;5095296;28;1404;-89
2022/03/19 00:10:39;;;;;;;;;;;;;;;2.10;80.14;103357.19;5112723;28;857;-89
2022/03/19 00:13:07;;;;;;;;;;;;;;;2.13;80.38;103342.50;5092290;28;1902;-89
2022/03/19 00:15:34;;;;;;;;;;;;;;;2.02;79.37;103349.03;5091223;28;1605;-88
2022/03/19 00:17:59;;;;;;;;;;;;;;;2.00;79.96;103352.88;5097717;28;1560;-89
2022/03/19 00:20:25;;;;;;;;;;;;;;;1.89;80.64;103348.53;5115559;28;1555;-90
2022/03/19 00:22:51;;;;;;;;;;;;;;;1.93;80.22;103354.50;5085917;28;1739;-89
2022/03/19 00:25:18;;;;;;;;;;;;;;;1.75;79.86;103351.78;5091551;28;1493;-89
2022/03/19 00:27:44;;;;;;;;;;;;;;;1.61;80.81;103358.56;5077673;28;1512;-89
2022/03/19 00:30:10;;;;;;;;;;;;;;;1.63;81.14;103353.84;5090770;28;1764;-88
2022/03/19 00:32:36;;;;;;;;;;;;;;;1.73;81.12;103343.81;5095696;28;1971;-88
2022/03/19 00:35:03;;;;;;;;;;;;;;;1.81;81.50;103346.63;5089064;28;1550;-89
2022/03/19 00:37:28;;;;;;;;;;;;;;;1.86;81.64;103344.31;5097564;28;1808;-89
2022/03/19 00:39:53;;;;;;;;;;;;;;;1.92;80.93;103342.84;5097395;28;1296;-88
2022/03/19 00:42:18;;;;;;;;;;;;;;;1.89;80.15;103345.84;5097627;28;1508;-89
2022/03/19 00:44:44;;;;;;;;;;;;;;;1.92;79.92;103350.94;5097648;28;1437;-89
2022/03/19 00:47:10;;;;;;;;;;;;;;;2.00;80.31;103344.78;5097350;28;1738;-90
2022/03/19 00:49:35;;;;;;;;;;;;;;;1.92;80.04;103342.00;5097464;28;1490;-88
2022/03/19 00:52:00;;;;;;;;;;;;;;;1.84;80.35;103343.63;5096869;28;1494;-88
2022/03/19 00:54:25;;;;;;;;;;;;;;;1.71;80.49;103344.97;5089869;28;1902;-89
2022/03/19 00:56:51;;;;;;;;;;;;;;;1.65;79.95;103345.59;5097296;28;1654;-90
2022/03/19 00:59:17;;;;;;;;;;;;;;;1.51;79.59;103338.88;5094198;28;1509;-89
2022/03/19 01:01:42;;;;;;;;;;;;;;;1.46;79.80;103336.59;5090396;28;1316;-89
2022/03/19 01:04:12;;;;;;;;;;;;;;;1.47;81.14;103337.47;5090617;28;1545;-89
2022/03/19 01:06:38;;;;;;;;;;;;;;;1.60;80.50;103337.13;5096839;28;1790;-90
2022/03/19 01:09:05;;;;;;;;;;;;;;;1.46;79.40;103343.84;5072980;28;1510;-88
2022/03/19 01:11:30;;;;;;;;;;;;;;;1.52;80.42;103337.88;5093890;28;1373;-89
2022/03/19 01:13:56;;;;;;;;;;;;;;;1.53;81.17;103339.56;5096300;28;1898;-89
2022/03/19 01:16:21;;;;;;;;;;;;;;;1.65;80.89;103337.50;5096767;28;1256;-89
2022/03/19 01:18:47;;;;;;;;;;;;;;;1.66;80.23;103331.94;5115361;28;906;-89
2022/03/19 01:21:14;;;;;;;;;;;;;;;1.61;80.06;103331.56;5096818;28;1501;-88
2022/03/19 01:23:39;;;;;;;;;;;;;;;1.33;80.31;103340.69;5086824;22;1568;-89
2022/03/19 01:26:17;;;;;;;;;;;;;;;1.48;81.24;103329.22;5075952;28;1476;-89
2022/03/19 01:28:50;;;;;;;;;;;;;;;1.44;80.69;103324.28;5081756;28;1689;-89
2022/03/19 01:31:35;;;;;;;;;;;;;;;1.34;80.29;103331.59;5067364;28;1475;-89
2022/03/19 01:34:21;;;;;;;;;;;;;;;1.18;79.36;103326.84;5061864;28;1972;-89
2022/03/19 01:40:08;;;;;;;;;;;;;;;1.04;80.58;103317.38;5083774;28;1584;-89
2022/03/19 01:42:51;;;;;;;;;;;;;;;1.06;80.28;103317.22;5073592;28;1639;-89
2022/03/19 01:45:58;;;;;;;;;;;;;;;0.94;79.83;103318.41;5053692;28;1387;-89
2022/03/19 01:48:48;;;;;;;;;;;;;;;;;;;;;
2022/03/19 01:51:16;;;;;;;;;;;;;;;1.05;80.61;103318.22;5054393;28;663;-89
2022/03/19 01:53:50;;;;;;;;;;;;;;;1.07;80.89;103314.41;5041858;28;1906;-89
2022/03/19 02:00:17;;;;;;;;;;;;;;;;;;;;;
2022/03/19 02:02:46;;;;;;;;;;;;;;;1.14;80.41;103307.41;5068299;28;1496;-89
2022/03/19 02:05:14;;;;;;;;;;;;;;;1.08;80.49;103305.31;5055027;28;1260;-89
2022/03/19 02:07:44;;;;;;;;;;;;;;;1.11;80.47;103305.00;5056248;28;1228;-89
2022/03/19 02:10:12;;;;;;;;;;;;;;;1.02;80.29;103311.28;5056153;28;1373;-90
2022/03/19 02:12:58;;;;;;;;;;;;;;;0.89;80.29;103302.69;5055866;28;1952;-89
2022/03/19 02:15:39;;;;;;;;;;;;;;;0.75;79.77;103304.03;5053068;28;1602;-89
2022/03/19 02:18:34;;;;;;;;;;;;;;;0.58;79.68;103306.63;5072541;28;1403;-89
2022/03/19 02:21:34;;;;;;;;;;;;;;;0.54;80.15;103299.81;5041288;28;1345;-89
2022/03/19 02:27:03;;;;;;;;;;;;;;;0.62;80.92;103287.31;5072983;28;1303;-89
2022/03/19 02:29:46;;;;;;;;;;;;;;;0.82;81.07;103285.41;5062094;28;1706;-89
2022/03/19 02:32:14;;;;;;;;;;;;;;;0.90;81.19;103288.22;5049858;28;1656;-88
2022/03/19 02:34:40;;;;;;;;;;;;;;;0.87;80.70;103282.25;5055869;28;1906;-89
2022/03/19 02:37:15;;;;;;;;;;;;;;;0.72;80.31;103284.59;5073530;28;1547;-89
2022/03/19 02:39:40;;;;;;;;;;;;;;;0.63;80.34;103272.00;5081290;28;1756;-89
2022/03/19 02:42:07;;;;;;;;;;;;;;;0.59;80.42;103265.22;5074252;28;1458;-89
2022/03/19 02:44:33;;;;;;;;;;;;;;;0.65;80.95;103261.94;5058952;28;1447;-89
2022/03/19 02:47:08;;;;;;;;;;;;;;;0.58;80.53;103268.91;5067888;28;1478;-89
2022/03/19 02:49:34;;;;;;;;;;;;;;;0.63;81.30;103263.91;5055315;28;1374;-88
2022/03/19 02:52:02;;;;;;;;;;;;;;;0.58;80.69;103272.47;5055462;28;1344;-89
2022/03/19 02:54:29;;;;;;;;;;;;;;;0.64;80.47;103271.84;5055346;28;1968;-89
2022/03/19 02:56:55;;;;;;;;;;;;;;;0.45;80.13;103262.97;5055369;28;1334;-89
2022/03/19 02:59:26;;;;;;;;;;;;;;;0.47;80.71;103263.69;5055612;28;1405;-89
2022/03/19 03:02:01;;;;;;;;;;;;;;;0.52;80.69;103267.63;5055517;28;1399;-89
2022/03/19 03:04:38;;;;;;;;;;;;;;;0.45;80.59;103280.00;5055425;28;1326;-89
2022/03/19 03:07:04;;;;;;;;;;;;;;;0.40;80.84;103274.22;5055644;28;1187;-89
2022/03/19 03:09:33;;;;;;;;;;;;;;;0.36;80.48;103279.03;5073486;28;848;-89
2022/03/19 03:11:58;;;;;;;;;;;;;;;0.38;80.30;103277.03;5055211;28;1407;-89
2022/03/19 03:14:24;;;;;;;;;;;;;;;0.47;80.73;103269.06;5046866;28;1901;-89
2022/03/19 03:16:51;;;;;;;;;;;;;;;0.49;80.74;103272.47;5055107;28;1437;-89
2022/03/19 03:19:17;;;;;;;;;;;;;;;0.56;81.18;103271.75;5052154;28;1537;-89
2022/03/19 03:21:45;;;;;;;;;;;;;;;0.52;81.00;103264.94;5055104;28;1742;-89
2022/03/19 03:24:11;;;;;;;;;;;;;;;0.44;80.64;103266.66;5055379;28;1227;-89
2022/03/19 03:26:37;;;;;;;;;;;;;;;0.42;81.59;103274.06;5065390;28;1633;-88
2022/03/19 03:29:09;;;;;;;;;;;;;;;0.37;81.28;103272.66;5055349;28;1266;-89
2022/03/19 03:31:35;;;;;;;;;;;;;;;0.45;82.27;103269.22;5071891;28;1571;-89
2022/03/19 03:36:49;;;;;;;;;;;;;;;0.87;84.16;103266.94;5031128;28;1598;-88
2022/03/19 03:39:14;;;;;;;;;;;;;;;1.30;85.79;103262.72;5057858;28;1703;-89
2022/03/19 03:41:39;;;;;;;;;;;;;;;1.72;87.11;103262.97;5058511;28;1356;-89
2022/03/19 03:44:04;;;;;;;;;;;;;;;2.17;88.68;103260.16;5058323;28;1818;-89
2022/03/19 03:46:30;;;;;;;;;;;;;;;2.48;89.02;103261.38;5058549;28;1184;-89
2022/03/19 03:48:56;;;;;;;;;;;;;;;2.83;89.26;103259.53;5058293;28;1751;-88
2022/03/19 03:51:21;;;;;;;;;;;;;;;2.94;89.12;103262.81;5058392;28;1719;-89
2022/03/19 03:53:47;;;;;;;;;;;;;;;2.95;88.94;103269.91;5058239;28;1963;-88
2022/03/19 03:56:12;;;;;;;;;;;;;;;3.06;89.27;103268.78;5058217;28;1353;-89
2022/03/19 03:58:39;;;;;;;;;;;;;;;3.07;89.47;103264.19;5058319;28;1668;-90
2022/03/19 04:01:04;;;;;;;;;;;;;;;3.07;89.23;103262.34;5058408;28;1246;-89
2022/03/19 04:03:30;;;;;;;;;;;;;;;3.15;89.25;103256.94;5054699;28;1567;-89
2022/03/19 04:05:55;;;;;;;;;;;;;;;3.15;89.24;103254.25;5057990;28;864;-89
2022/03/19 04:08:20;;;;;;;;;;;;;;;3.19;89.15;103263.75;5055258;28;1347;-89
2022/03/19 04:10:46;;;;;;;;;;;;;;;3.18;89.38;103259.34;5056174;28;1430;-90
2022/03/19 04:13:11;;;;;;;;;;;;;;;3.21;89.22;103267.13;5040434;28;1965;-89
2022/03/19 04:15:36;;;;;;;;;;;;;;;3.16;88.95;103260.50;5057888;28;1390;-89
2022/03/19 04:18:02;;;;;;;;;;;;;;;3.13;89.10;103256.28;5041117;28;1204;-90
2022/03/19 04:20:27;;;;;;;;;;;;;;;3.10;89.38;103262.00;5063147;28;1237;-89
2022/03/19 04:22:53;;;;;;;;;;;;;;;3.19;89.17;103261.03;5057415;28;1479;-90
2022/03/19 04:25:20;;;;;;;;;;;;;;;3.21;89.37;103266.28;5073708;28;1177;-89
2022/03/19 04:27:47;;;;;;;;;;;;;;;3.22;88.96;103271.53;5054140;28;1727;-90
2022/03/19 04:30:13;;;;;;;;;;;;;;;3.25;89.06;103257.66;5057901;28;1405;-89
2022/03/19 04:32:40;;;;;;;;;;;;;;;3.25;88.57;103257.66;5056864;28;1966;-89
2022/03/19 04:36:29;;;;;;;;;;;;;;;3.28;88.86;103259.19;5058789;28;1473;-89
2022/03/19 04:37:50;;;;;;;;;;;;;;;3.19;88.53;103250.22;5065230;28;1250;-90
2022/03/19 04:40:16;;;;;;;;;;;;;;;3.26;88.17;103261.22;5057387;28;1485;-90
2022/03/19 04:42:41;;;;;;;;;;;;;;;3.24;87.89;103265.94;5057965;28;1366;-90
2022/03/19 04:45:07;;;;;;;;;;;;;;;3.18;87.85;103262.03;5057937;28;1346;-90
2022/03/19 04:47:32;;;;;;;;;;;;;;;3.15;88.23;103262.34;5057597;28;1732;-89
2022/03/19 04:50:00;;;;;;;;;;;;;;;3.14;87.37;103257.13;5053808;28;1567;-89
2022/03/19 04:52:25;;;;;;;;;;;;;;;3.13;86.99;103259.00;5064236;28;1658;-89
2022/03/19 04:54:50;;;;;;;;;;;;;;;3.06;87.45;103259.81;5067048;28;1882;-89
2022/03/19 04:57:15;;;;;;;;;;;;;;;3.00;87.88;103261.28;5080911;28;1353;-89
2022/03/19 04:59:40;;;;;;;;;;;;;;;2.94;87.74;103262.81;5057224;28;1298;-89
2022/03/19 05:02:06;;;;;;;;;;;;;;;2.78;87.19;103264.59;5057282;28;1150;-89
2022/03/19 05:04:31;;;;;;;;;;;;;;;2.56;87.18;103266.81;5057392;28;1228;-90
2022/03/19 05:06:56;;;;;;;;;;;;;;;2.41;87.82;103260.31;5057161;28;1358;-90
2022/03/19 05:12:05;;;;;;;;;;;;;;;2.09;87.71;103258.25;5075245;28;1280;-89
2022/03/19 05:14:31;;;;;;;;;;;;;;;2.00;87.12;103264.56;5073700;28;1894;-90
2022/03/19 05:16:56;;;;;;;;;;;;;;;1.89;86.93;103262.97;5073626;28;1191;-89
2022/03/19 05:19:21;;;;;;;;;;;;;;;1.63;87.27;103272.00;5073506;28;1066;-89
2022/03/19 05:21:46;;;;;;;;;;;;;;;1.65;87.98;103270.84;5056690;28;1711;-89
2022/03/19 05:24:11;;;;;;;;;;;;;;;1.60;87.80;103261.53;5070976;28;1730;-89
2022/03/19 05:26:37;;;;;;;;;;;;;;;1.52;87.64;103270.41;5056574;28;1743;-90
2022/03/19 05:29:02;;;;;;;;;;;;;;;1.57;87.82;103275.31;5056603;28;1512;-89
2022/03/19 05:31:28;;;;;;;;;;;;;;;1.51;87.29;103272.25;5056846;28;1759;-89
2022/03/19 05:36:37;;;;;;;;;;;;;;;1.32;87.61;103268.81;5074726;28;1455;-89
2022/03/19 05:39:02;;;;;;;;;;;;;;;1.13;86.92;103270.63;5055889;28;1502;-89
2022/03/19 05:41:27;;;;;;;;;;;;;;;1.17;87.10;103281.13;5056793;28;1838;-89
2022/03/19 05:43:53;;;;;;;;;;;;;;;1.20;87.52;103272.72;5092865;28;1643;-89
2022/03/19 05:46:18;;;;;;;;;;;;;;;1.20;87.41;103276.25;5052602;28;1752;-89
2022/03/19 05:48:43;;;;;;;;;;;;;;;1.28;88.17;103272.81;5039799;28;1511;-89
2022/03/19 05:51:09;;;;;;;;;;;;;;;1.34;87.68;103275.78;5056334;28;1633;-89
2022/03/19 05:53:34;;;;;;;;;;;;;;;1.23;86.67;103273.28;5056747;28;1965;-89
2022/03/19 05:56:00;;;;;;;;;;;;;;;1.19;86.55;103276.44;5058918;28;1624;-89
2022/03/19 05:58:25;;;;;;;;;;;;;;;1.09;86.18;103279.19;5076445;28;1239;-88
2022/03/19 06:00:50;;;;;;;;;;;;;;;1.06;86.34;103277.63;5067097;28;1323;-89
2022/03/19 06:03:16;;;;;;;;;;;;;;;1.06;86.03;103274.94;5055973;28;1584;-89
2022/03/19 06:05:41;;;;;;;;;;;;;;;1.13;86.05;103276.03;5056184;28;1385;-89
2022/03/19 06:08:06;;;;;;;;;;;;;;;1.20;85.89;103281.66;5056356;28;1683;-90
2022/03/19 06:10:35;;;;;;;;;;;;;;;1.15;85.64;103275.88;5056064;28;1739;-89
2022/03/19 06:13:00;;;;;;;;;;;;;;;1.19;85.51;103287.22;5072498;28;1966;-89
2022/03/19 06:15:25;;;;;;;;;;;;;;;1.28;85.95;103268.25;5056168;28;1125;-89
2022/03/19 06:17:51;;;;;;;;;;;;;;;1.22;85.39;103273.41;5055890;28;1488;-89
2022/03/19 06:20:22;;;;;;;;;;;;;;;1.35;85.45;103279.31;5074382;28;1773;-89
2022/03/19 06:22:49;;;;;;;;;;;;;;;1.33;85.12;103276.75;5073426;28;1355;-89
2022/03/19 06:25:14;;;;;;;;;;;;;;;1.52;85.45;103281.19;5074981;28;1751;-89
2022/03/19 06:27:39;;;;;;;;;;;;;;;1.52;85.01;103273.94;5063674;28;1450;-89
2022/03/19 06:30:05;;;;;;;;;;;;;;;1.74;84.47;103269.94;5056295;28;1464;-88
2022/03/19 06:32:30;;;;;;;;;;;;;;;1.81;84.00;103264.75;5055838;28;1298;-89
2022/03/19 06:34:56;;;;;;;;;;;;;;;1.87;83.92;103267.66;5055630;28;1894;-89
2022/03/19 06:37:21;;;;;;;;;;;;;;;1.92;83.02;103271.78;5055455;28;1309;-89
2022/03/19 06:39:53;;;;;;;;;;;;;;;1.96;83.05;103263.19;5055125;28;1470;-89
2022/03/19 06:42:18;;;;;;;;;;;;;;;1.78;83.02;103259.69;5035860;28;1275;-88
2022/03/19 06:44:43;;;;;;;;;;;;;;;1.79;83.11;103262.19;5063899;28;1335;-88
2022/03/19 06:47:08;;;;;;;;;;;;;;;2.13;82.55;103259.59;5072263;28;1830;-89
2022/03/19 06:49:34;;;;;;;;;;;;;;;2.21;81.85;103259.66;5055536;28;1166;-89
2022/03/19 06:51:59;;;;;;;;;;;;;;;2.33;81.66;103254.00;5055571;28;1313;-89
2022/03/19 06:54:25;;;;;;;;;;;;;;;2.47;80.89;103264.22;5055303;28;1949;-89
2022/03/19 06:56:52;;;;;;;;;;;;;;;2.65;80.54;103257.75;5055612;28;1236;-89
2022/03/19 06:59:17;;;;;;;;;;;;;;;2.82;79.73;103258.69;5055609;28;1335;-90
2022/03/19 07:01:42;;;;;;;;;;;;;;;2.85;80.08;103261.06;5055736;28;1283;-89
2022/03/19 07:04:07;;;;;;;;;;;;;;;2.92;79.55;103256.69;5055634;28;1493;-90
2022/03/19 07:06:33;;;;;;;;;;;;;;;3.17;77.58;103260.34;5055493;28;1156;-89
2022/03/19 07:08:58;;;;;;;;;;;;;;;3.40;76.69;103274.94;5056007;28;1471;-89
2022/03/19 07:11:25;;;;;;;;;;;;;;;3.61;75.29;103250.13;5055765;28;1246;-89
2022/03/19 07:13:50;;;;;;;;;;;;;;;3.73;74.89;103256.94;5057735;28;1890;-89
2022/03/19 07:16:15;;;;;;;;;;;;;;;3.87;73.39;103254.53;5059228;28;1187;-89
2022/03/19 07:18:42;;;;;;;;;;;;;;;3.87;73.71;103257.25;5059338;28;1196;-88
2022/03/19 07:21:07;;;;;;;;;;;;;;;3.85;74.61;103257.41;5059059;28;1440;-87
2022/03/19 07:23:33;;;;;;;;;;;;;;;3.85;74.53;103262.84;5058474;28;1346;-88
2022/03/19 07:25:59;;;;;;;;;;;;;;;3.91;74.54;103255.91;5059474;28;1217;-89
2022/03/19 07:31:44;;;;;;;;;;;;;;;3.94;74.45;103259.13;5043558;28;1265;-89
2022/03/19 07:34:14;;;;;;;;;;;;;;;3.96;74.36;103257.09;5038785;28;1898;-90
2022/03/19 07:36:55;;;;;;;;;;;;;;;4.00;73.92;103252.16;5038581;28;1463;-90
2022/03/19 07:39:28;;;;;;;;;;;;;;;4.03;74.19;103241.00;5039126;28;1519;-87
2022/03/19 07:42:22;;;;;;;;;;;;;;;4.11;74.12;103236.41;5038424;28;1264;-90
2022/03/19 07:45:00;;;;;;;;;;;;;;;4.23;73.61;103234.22;5038076;28;1272;-90
2022/03/19 07:47:47;;;;;;;;;;;;;;;4.23;73.65;103233.34;5057266;28;1554;-90
2022/03/19 07:50:28;;;;;;;;;;;;;;;4.23;73.40;103236.06;5059148;28;1423;-89
2022/03/19 07:52:56;;;;;;;;;;;;;;;4.24;73.77;103232.34;5059127;28;1968;-90
2022/03/19 07:55:22;;;;;;;;;;;;;;;4.41;74.46;103229.44;5058834;28;1470;-90
2022/03/19 07:58:02;;;;;;;;;;;;;;;4.49;74.05;103232.13;5059062;28;1183;-91
2022/03/19 08:00:47;;;;;;;;;;;;;;;4.65;73.33;103233.09;5058772;28;1562;-89
2022/03/19 08:03:12;;;;;;;;;;;;;;;4.55;73.77;103231.41;5058079;28;1330;-90
2022/03/19 08:05:40;;;;;;;;;;;;;;;4.52;73.39;103230.91;5058646;28;1199;-90
2022/03/19 08:08:11;;;;;;;;;;;;;;;4.60;73.44;103228.16;5058149;28;1455;-89
2022/03/19 08:10:37;;;;;;;;;;;;;;;4.70;73.20;103234.25;5058567;28;1577;-89
2022/03/19 08:13:03;;;;;;;;;;;;;;;4.69;73.20;103239.84;5058463;28;1901;-88
2022/03/19 08:15:29;;;;;;;;;;;;;;;4.64;73.20;103232.25;5058129;28;1310;-87
2022/03/19 08:17:54;;;;;;;;;;;;;;;4.70;72.96;103236.97;5075829;28;1028;-87
2022/03/19 08:20:19;;;;;;;;;;;;;;;4.72;72.85;103232.22;5076027;28;1040;-88
2022/03/19 08:22:44;;;;;;;;;;;;;;;4.69;72.07;103226.28;5057995;28;1272;-87
2022/03/19 08:25:09;;;;;;;;;;;;;;;4.76;71.53;103230.84;5056248;28;1479;-87
2022/03/19 08:27:34;;;;;;;;;;;;;;;4.81;71.04;103231.16;5058042;28;1274;-87
2022/03/19 08:30:02;;;;;;;;;;;;;;;4.79;70.51;103227.78;5057928;28;1019;-88
2022/03/19 08:32:28;;;;;;;;;;;;;;;4.86;69.22;103223.31;5075556;28;1319;-89
2022/03/19 08:34:54;;;;;;;;;;;;;;;4.90;69.07;103221.97;5075481;28;1890;-88
2022/03/19 08:37:19;;;;;;;;;;;;;;;4.88;69.35;103210.44;5057839;28;1232;-88
2022/03/19 08:42:28;;;;;;;;;;;;;;;5.19;66.04;103196.84;5074441;28;1284;-89
2022/03/19 08:44:56;;;;;;;;;;;;;;;5.19;67.25;103204.19;5048734;28;1526;-88
2022/03/19 08:47:21;;;;;;;;;;;;;;;5.13;66.13;103199.44;5055302;28;1312;-88
2022/03/19 08:49:46;;;;;;;;;;;;;;;5.22;65.14;103192.94;5059777;28;1201;-88
2022/03/19 08:52:12;;;;;;;;;;;;;;;5.33;65.06;103190.66;5075177;28;1306;-88
2022/03/19 08:54:37;;;;;;;;;;;;;;;5.26;65.64;103181.56;5075075;28;1952;-88
2022/03/19 08:57:02;;;;;;;;;;;;;;;5.27;65.53;103187.84;5044061;28;1390;-88
2022/03/19 08:59:27;;;;;;;;;;;;;;;5.39;64.29;103188.25;5055340;28;1353;-88
2022/03/19 09:01:53;;;;;;;;;;;;;;;5.41;63.70;103184.34;5037223;28;1288;-89
2022/03/19 09:04:18;;;;;;;;;;;;;;;5.56;64.00;103184.38;5037308;28;1315;-88
2022/03/19 09:06:44;;;;;;;;;;;;;;;5.51;64.67;103178.66;5037093;28;1359;-88
2022/03/19 09:09:09;;;;;;;;;;;;;;;5.42;64.67;103180.59;5045122;28;1446;-88
2022/03/19 09:11:35;;;;;;;;;;;;;;;5.59;62.99;103176.72;5074717;28;1336;-88
2022/03/19 09:14:01;;;;;;;;;;;;;;;5.64;61.77;103171.56;5073395;28;1973;-88
2022/03/19 09:16:26;;;;;;;;;;;;;;;5.65;61.71;103173.28;5040504;28;1255;-88
2022/03/19 09:18:52;;;;;;;;;;;;;;;5.59;61.58;103170.44;5065917;28;1301;-88
2022/03/19 09:21:17;;;;;;;;;;;;;;;5.67;61.44;103156.78;5037162;28;1309;-88
2022/03/19 09:23:45;;;;;;;;;;;;;;;5.61;62.34;103158.34;5052125;28;1259;-88
2022/03/19 09:26:10;;;;;;;;;;;;;;;5.78;61.07;103155.50;5056580;28;1444;-88
2022/03/19 09:28:35;;;;;;;;;;;;;;;5.73;60.69;103158.75;5042599;28;1223;-88
2022/03/19 09:31:00;;;;;;;;;;;;;;;5.78;58.97;103145.50;5063502;28;1352;-88
2022/03/19 09:33:26;;;;;;;;;;;;;;;6.01;57.48;103143.59;5056383;28;1914;-88
2022/03/19 09:35:51;;;;;;;;;;;;;;;5.95;59.07;103146.22;5072414;28;1482;-88
2022/03/19 09:38:17;;;;;;;;;;;;;;;5.87;59.85;103148.97;5055891;28;1397;-88
2022/03/19 09:40:42;;;;;;;;;;;;;;;5.88;58.55;103150.66;5049501;28;1408;-88
2022/03/19 09:43:15;;;;;;;;;;;;;;;5.86;60.84;103133.69;5046922;28;1342;-90
2022/03/19 09:45:40;;;;;;;;;;;;;;;5.94;61.07;103133.66;5054906;28;928;-87
2022/03/19 09:48:05;;;;;;;;;;;;;;;6.06;61.25;103143.88;5053820;28;944;-89
2022/03/19 09:50:30;;;;;;;;;;;;;;;6.13;59.24;103132.22;5043163;28;1564;-88
2022/03/19 09:52:57;;;;;;;;;;;;;;;6.16;57.54;103121.84;5076806;28;2008;-88
2022/03/19 09:55:26;;;;;;;;;;;;;;;6.25;58.99;103130.75;5070282;28;1259;-88
2022/03/19 09:57:51;;;;;;;;;;;;;;;6.25;58.61;103131.59;5072954;28;1234;-87
2022/03/19 10:00:16;;;;;;;;;;;;;;;6.23;59.22;103130.94;5075305;28;1474;-88
2022/03/19 10:02:57;;;;;;;;;;;;;;;6.23;58.77;103130.09;5055668;28;1271;-87
2022/03/19 10:10:51;;;;;;;;;;;;;;;6.26;60.29;103114.25;5055479;28;1624;-88
2022/03/19 10:13:16;;;;;;;;;;;;;;;6.31;60.71;103113.66;5035611;28;1894;-87
2022/03/19 10:15:42;;;;;;;;;;;;;;;6.40;60.80;103115.25;5049946;28;1694;-88
2022/03/19 11:12:21;;;;;;;;;;;;;;;7.11;56.41;103049.06;5116547;28;1441;-90
2022/03/19 11:14:49;;;;;;;;;;;;;;;7.09;56.78;103050.31;5099091;28;1910;-92
2022/03/19 11:17:33;;;;;;;;;;;;;;;7.10;57.23;103032.94;5099183;28;1414;-91
2022/03/19 11:20:00;;;;;;;;;;;;;;;7.22;55.81;103043.13;5097131;28;1351;-93
2022/03/19 11:22:26;;;;;;;;;;;;;;;7.30;53.15;103031.22;5099321;28;1373;-92
2022/03/19 11:25:13;;;;;;;;;;;;;;;7.44;52.34;103029.44;5099896;28;1361;-92
2022/03/19 11:27:41;;;;;;;;;;;;;;;7.49;52.21;103046.88;5117545;28;1137;-92
2022/03/19 11:30:06;;;;;;;;;;;;;;;7.46;51.75;103024.66;5100171;28;1396;-91
2022/03/19 11:32:32;;;;;;;;;;;;;;;7.49;52.24;103016.06;5100292;28;1214;-92
2022/03/19 11:34:59;;;;;;;;;;;;;;;7.49;52.31;103013.31;5099642;28;1898;-89
2022/03/19 11:37:24;;;;;;;;;;;;;;;7.43;52.46;103014.97;5100014;28;1210;-91
2022/03/19 11:40:04;;;;;;;;;;;;;;;7.43;52.58;103004.06;5099651;28;1410;-91
2022/03/19 11:42:30;;;;;;;;;;;;;;;7.56;53.07;103001.47;5104355;28;1300;-91
2022/03/19 11:44:55;;;;;;;;;;;;;;;7.63;52.66;102993.31;5096160;28;1347;-90
2022/03/19 11:47:31;;;;;;;;;;;;;;;7.71;52.92;102984.97;5085909;28;1391;-92
2022/03/19 11:50:00;;;;;;;;;;;;;;;7.79;52.49;102990.25;5110256;28;1454;-92
2022/03/19 11:52:26;;;;;;;;;;;;;;;7.93;53.20;102978.38;5093019;28;1261;-90
2022/03/19 11:55:00;;;;;;;;;;;;;;;7.98;53.06;102970.44;5093068;28;1993;-91
2022/03/19 11:57:26;;;;;;;;;;;;;;;8.08;53.30;102970.03;5095949;28;1265;-91
2022/03/19 11:59:56;;;;;;;;;;;;;;;8.13;52.50;102955.81;5095142;28;1226;-89
2022/03/19 12:02:21;;;;;;;;;;;;;;;8.06;52.04;102963.13;5095819;28;1195;-91
2022/03/19 12:04:47;;;;;;;;;;;;;;;8.09;51.22;102946.31;5095427;28;1227;-91
2022/03/19 12:07:32;;;;;;;;;;;;;;;8.21;51.27;102951.00;5095434;28;1254;-91
2022/03/19 12:09:59;;;;;;;;;;;;;;;8.40;49.99;102940.38;5095538;28;1298;-89
2022/03/19 12:12:24;;;;;;;;;;;;;;;8.51;50.66;102937.88;5081598;28;1374;-91
2022/03/19 12:14:49;;;;;;;;;;;;;;;8.63;50.94;102927.19;5095087;28;1905;-92
2022/03/19 12:17:16;;;;;;;;;;;;;;;8.69;49.96;102920.88;5098868;28;1249;-92
2022/03/19 12:19:53;;;;;;;;;;;;;;;8.71;50.83;102916.91;5094402;28;1379;-91
2022/03/19 12:22:29;;;;;;;;;;;;;;;8.81;50.59;102916.50;5088154;28;1365;-91
2022/03/19 12:24:59;;;;;;;;;;;;;;;9.07;49.36;102900.09;5086547;28;1403;-90
2022/03/19 12:27:24;;;;;;;;;;;;;;;9.26;48.82;102895.66;5101762;28;1233;-90
2022/03/19 12:29:49;;;;;;;;;;;;;;;9.37;47.95;102885.94;5088287;28;1285;-90
2022/03/19 12:32:15;;;;;;;;;;;;;;;9.46;47.27;102892.84;5098174;28;1522;-90
2022/03/19 12:34:40;;;;;;;;;;;;;;;9.63;46.78;102885.84;5094007;28;1964;-90
2022/03/19 12:37:05;;;;;;;;;;;;;;;9.85;47.34;102883.69;5095877;28;1225;-90
2022/03/19 12:39:30;;;;;;;;;;;;;;;9.92;48.08;102881.75;5086313;28;1291;-90
2022/03/19 12:41:56;;;;;;;;;;;;;;;9.96;47.28;102885.72;5098174;28;1529;-92
2022/03/19 12:44:22;;;;;;;;;;;;;;;9.80;47.41;102876.13;5098004;28;1222;-91
2022/03/19 12:46:52;;;;;;;;;;;;;;;9.68;48.04;102880.59;5098011;28;1658;-91
2022/03/19 12:49:19;;;;;;;;;;;;;;;9.67;48.18;102875.34;5097698;28;1892;-90
2022/03/19 12:51:46;;;;;;;;;;;;;;;9.51;48.69;102878.56;5098349;28;1175;-90
2022/03/19 12:54:18;;;;;;;;;;;;;;;9.31;49.65;102876.72;5080667;28;1889;-90
2022/03/19 12:56:44;;;;;;;;;;;;;;;9.07;48.34;102869.19;5082903;28;1427;-91
2022/03/19 12:59:15;;;;;;;;;;;;;;;8.97;49.73;102866.06;5092099;28;1321;-90
2022/03/19 13:01:41;;;;;;;;;;;;;;;8.93;49.95;102864.81;5085802;28;1495;-91
2022/03/19 13:04:06;;;;;;;;;;;;;;;8.87;49.74;102860.19;5096367;28;1439;-91
2022/03/19 13:06:36;;;;;;;;;;;;;;;9.02;49.78;102858.06;5096141;28;1292;-90
2022/03/19 13:09:02;;;;;;;;;;;;;;;8.99;49.59;102853.03;5098099;28;1232;-90
2022/03/19 13:11:27;;;;;;;;;;;;;;;8.96;49.38;102842.53;5097066;28;1477;-91
2022/03/19 13:13:52;;;;;;;;;;;;;;;8.91;50.47;102829.53;5097511;28;1893;-91
2022/03/19 13:16:25;;;;;;;;;;;;;;;8.85;50.05;102824.88;5098305;28;1438;-91
2022/03/19 13:18:55;;;;;;;;;;;;;;;8.76;49.66;102828.06;5097678;28;1397;-91
2022/03/19 13:21:21;;;;;;;;;;;;;;;8.60;50.62;102816.50;5098126;28;1270;-92
2022/03/19 13:23:46;;;;;;;;;;;;;;;8.45;50.87;102818.63;5097700;28;1270;-91
2022/03/19 13:26:11;;;;;;;;;;;;;;;8.39;51.10;102814.00;5115993;28;1018;-91
2022/03/19 13:28:36;;;;;;;;;;;;;;;8.39;51.23;102802.25;5095519;28;1489;-91
2022/03/19 13:31:02;;;;;;;;;;;;;;;10.27;46.83;102799.25;5094254;28;1461;-90
2022/03/19 13:33:28;;;;;;;;;;;;;;;15.62;36.45;102769.66;5076886;28;1886;-91
2022/03/19 13:35:54;;;;;;;;;;;;;;;18.21;32.94;102760.97;5085600;28;1199;-91
2022/03/19 13:38:20;;;;;;;;;;;;;;;15.73;35.11;102752.13;5115457;28;1263;-90
2022/03/19 13:40:46;;;;;;;;;;;;;;;12.99;40.17;102753.13;5097363;28;1317;-91
2022/03/19 13:43:11;;;;;;;;;;;;;;;15.23;36.54;102746.81;5115309;28;833;-92
2022/03/19 13:45:36;;;;;;;;;;;;;;;15.74;33.71;102753.75;5097256;28;1289;-91
2022/03/19 13:48:03;;;;;;;;;;;;;;;12.76;39.30;102761.41;5096948;28;1317;-90
2022/03/19 13:50:28;;;;;;;;;;;;;;;10.96;41.52;102764.25;5096723;28;1291;-90
2022/03/19 13:52:57;;;;;;;;;;;;;;;10.69;44.07;102759.28;5096911;28;1615;-91
2022/03/19 13:55:22;;;;;;;;;;;;;;;13.17;39.66;102755.75;5096816;28;1955;-90
2022/03/19 13:57:54;;;;;;;;;;;;;;;11.89;41.21;102763.06;5115281;28;1650;-90
2022/03/19 14:00:23;;;;;;;;;;;;;;;10.65;43.11;102761.63;5097073;28;1270;-91
2022/03/19 14:02:56;;;;;;;;;;;;;;;10.03;45.78;102755.22;5096647;28;1627;-91
2022/03/19 14:05:22;;;;;;;;;;;;;;;11.12;44.89;102746.38;5096850;28;1343;-90
2022/03/19 14:07:47;;;;;;;;;;;;;;;12.96;40.67;102748.09;5096903;28;1312;-92
2022/03/19 14:10:13;;;;;;;;;;;;;;;12.95;39.87;102731.84;5096314;28;1389;-91
2022/03/19 14:12:40;;;;;;;;;;;;;;;12.85;40.82;102743.44;5096549;28;1328;-92
2022/03/19 14:15:06;;;;;;;;;;;;;;;13.89;37.80;102725.75;5114805;28;1898;-91
2022/03/19 14:17:44;;;;;;;;;;;;;;;13.66;39.37;102736.06;5096328;28;1430;-91
2022/03/19 14:20:10;;;;;;;;;;;;;;;16.03;35.13;102721.19;5096412;28;1442;-90
2022/03/19 14:22:35;;;;;;;;;;;;;;;16.09;34.08;102714.59;5096916;28;1497;-91
2022/03/19 14:25:00;;;;;;;;;;;;;;;14.20;35.67;102718.03;5096621;28;1062;-91